Time;durP1;ratioP1;P1;durP2;ratioP2;P2;SDS_P1;SDS_P2;PMS_P1;PMS_P2;Temp;Humidity;BMP_temperature;BMP_pressure;BME280_temperature;BME280_humidity;BME280_pressure;Samples;Min_cycle;Max_cycle;Signal;HPM_P1;HPM_P2
2021/01/17 00:00:19;;;;;;;52.08;24.30;;;-0.80;99.90;;;;;;5095614;28;20059;-68
2021/01/17 00:02:46;;;;;;;52.28;24.20;;;-0.70;99.90;;;;;;5094178;28;20028;-68
2021/01/17 00:05:14;;;;;;;56.05;24.33;;;-0.80;99.90;;;;;;5094972;28;20039;-68
2021/01/17 00:07:40;;;;;;;50.88;23.05;;;-0.80;99.90;;;;;;5095192;28;20020;-67
2021/01/17 00:10:07;;;;;;;48.05;23.08;;;-0.80;99.90;;;;;;5094236;28;20133;-68
2021/01/17 00:12:33;;;;;;;54.75;25.23;;;-0.80;99.90;;;;;;5093862;28;20107;-68
2021/01/17 00:14:59;;;;;;;56.28;25.52;;;-0.80;99.90;;;;;;5094469;28;20024;-68
2021/01/17 00:17:25;;;;;;;49.60;23.13;;;-0.80;99.90;;;;;;5095064;28;20082;-68
2021/01/17 00:19:50;;;;;;;58.17;24.30;;;-0.80;99.90;;;;;;5093534;28;20043;-68
2021/01/17 00:22:20;;;;;;;52.65;23.98;;;-0.80;99.90;;;;;;5095190;28;20035;-68
2021/01/17 00:24:46;;;;;;;58.05;25.50;;;-0.80;99.90;;;;;;5093997;28;20027;-67
2021/01/17 00:27:12;;;;;;;58.42;25.02;;;-0.80;99.90;;;;;;5093658;28;20048;-67
2021/01/17 00:29:38;;;;;;;59.17;26.65;;;-0.80;99.90;;;;;;5095020;28;20020;-68
2021/01/17 00:32:08;;;;;;;62.63;26.10;;;-0.80;99.90;;;;;;5094329;28;20493;-68
2021/01/17 00:34:34;;;;;;;55.13;24.90;;;-0.80;99.90;;;;;;5094307;28;20039;-68
2021/01/17 00:36:59;;;;;;;57.05;25.92;;;-0.80;99.90;;;;;;5094937;28;20028;-68
2021/01/17 00:39:25;;;;;;;51.65;23.35;;;-0.80;99.90;;;;;;5094896;28;20050;-68
2021/01/17 00:41:50;;;;;;;54.50;24.42;;;-0.80;99.90;;;;;;5093773;28;20454;-68
2021/01/17 00:44:16;;;;;;;55.50;25.35;;;-0.80;99.90;;;;;;5094804;28;20061;-68
2021/01/17 00:46:41;;;;;;;56.95;25.85;;;-0.80;99.90;;;;;;5093274;28;20089;-68
2021/01/17 00:49:07;;;;;;;61.75;25.42;;;-0.90;99.90;;;;;;5094701;28;20028;-68
2021/01/17 00:51:37;;;;;;;58.65;24.95;;;-0.90;99.90;;;;;;5093163;28;20032;-67
2021/01/17 00:54:04;;;;;;;58.88;25.40;;;-0.90;99.90;;;;;;5092827;28;20016;-68
2021/01/17 00:56:29;;;;;;;53.70;24.50;;;-0.80;99.90;;;;;;5110127;28;20458;-68
2021/01/17 00:58:55;;;;;;;54.17;25.08;;;-0.80;99.90;;;;;;5094581;28;20024;-67
2021/01/17 01:01:20;;;;;;;58.78;25.08;;;-0.90;99.90;;;;;;5094522;28;20039;-67
2021/01/17 01:03:46;;;;;;;58.80;25.50;;;-0.90;99.90;;;;;;5094266;28;20074;-68
2021/01/17 01:06:19;;;;;;;52.70;24.95;;;-0.90;99.90;;;;;;5094155;28;20145;-68
2021/01/17 01:08:46;;;;;;;59.55;25.92;;;-0.90;99.90;;;;;;5092581;28;20061;-67
2021/01/17 01:11:20;;;;;;;58.30;25.45;;;-0.90;99.90;;;;;;5094049;28;20016;-68
2021/01/17 01:13:46;;;;;;;59.25;25.73;;;-0.90;99.90;;;;;;5092510;28;20483;-68
2021/01/17 01:16:14;;;;;;;59.08;25.00;;;-0.90;99.90;;;;;;5094304;28;20016;-68
2021/01/17 01:18:40;;;;;;;54.55;24.30;;;-0.80;99.90;;;;;;5094297;28;20055;-68
2021/01/17 01:21:06;;;;;;;56.65;25.58;;;-0.80;99.90;;;;;;5093984;28;20028;-68
2021/01/17 01:23:31;;;;;;;57.20;24.58;;;-0.80;99.90;;;;;;5094240;28;20129;-68
2021/01/17 01:25:57;;;;;;;57.13;25.58;;;-0.80;99.90;;;;;;5092751;28;20036;-68
2021/01/17 01:28:23;;;;;;;55.65;24.52;;;-0.80;99.90;;;;;;5075369;28;20028;-68
2021/01/17 01:30:49;;;;;;;58.30;25.20;;;-0.80;99.90;;;;;;5093846;28;20377;-68
2021/01/17 01:33:15;;;;;;;58.15;24.73;;;-0.80;99.90;;;;;;5094127;28;20031;-68
2021/01/17 01:35:40;;;;;;;54.25;23.63;;;-0.80;99.90;;;;;;5092248;28;20433;-68
2021/01/17 01:38:08;;;;;;;53.13;24.25;;;-0.80;99.90;;;;;;5092919;28;20081;-68
2021/01/17 01:40:33;;;;;;;54.45;24.10;;;-0.80;99.90;;;;;;5094076;28;20111;-68
2021/01/17 01:42:59;;;;;;;56.40;24.02;;;-0.80;99.90;;;;;;5093774;28;20070;-68
2021/01/17 01:45:24;;;;;;;50.67;22.42;;;-0.80;99.90;;;;;;5094029;28;20661;-68
2021/01/17 01:47:50;;;;;;;53.80;24.70;;;-0.80;99.90;;;;;;5092696;28;20050;-68
2021/01/17 01:50:15;;;;;;;56.15;24.38;;;-0.80;99.90;;;;;;5093706;28;20016;-68
2021/01/17 01:52:41;;;;;;;53.83;23.95;;;-0.80;99.90;;;;;;5075232;28;20030;-68
2021/01/17 01:55:08;;;;;;;57.92;24.23;;;-0.80;99.90;;;;;;5093918;28;20054;-68
2021/01/17 01:57:35;;;;;;;55.45;24.13;;;-0.80;99.90;;;;;;5075368;28;20119;-68
2021/01/17 02:00:03;;;;;;;52.05;23.83;;;-0.80;99.90;;;;;;5093847;28;20073;-68
2021/01/17 02:02:29;;;;;;;52.75;23.17;;;-0.80;99.90;;;;;;5092035;28;20024;-68
2021/01/17 02:04:54;;;;;;;51.90;24.00;;;-0.80;99.90;;;;;;5093870;28;20081;-68
2021/01/17 02:08:00;;;;;;;54.45;25.05;;;-0.80;99.90;;;;;;5092829;28;20023;-68
2021/01/17 02:10:25;;;;;;;56.33;25.65;;;-0.80;99.90;;;;;;5093153;28;20031;-68
2021/01/17 02:12:56;;;;;;;53.88;25.27;;;-0.80;99.90;;;;;;5091838;28;20028;-68
2021/01/17 02:15:33;;;;;;;54.28;25.90;;;-0.80;99.90;;;;;;5092574;28;20020;-68
2021/01/17 02:18:04;;;;;;;55.85;24.80;;;-0.80;99.90;;;;;;5093466;28;20028;-68
2021/01/17 02:20:31;;;;;;;59.60;26.00;;;-0.80;99.90;;;;;;5074963;28;20425;-68
2021/01/17 02:23:12;;;;;;;58.92;24.85;;;-0.80;99.90;;;;;;5093428;28;20039;-68
2021/01/17 02:25:39;;;;;;;47.17;22.83;;;-0.80;99.90;;;;;;5110075;28;20047;-68
2021/01/17 02:28:07;;;;;;;55.63;24.50;;;-0.70;99.90;;;;;;5093672;28;20471;-68
2021/01/17 02:30:38;;;;;;;51.30;24.20;;;-0.70;99.90;;;;;;5093338;28;20024;-68
2021/01/17 02:33:17;;;;;;;55.97;24.40;;;-0.70;99.90;;;;;;5093521;28;20054;-68
2021/01/17 02:35:45;;;;;;;52.25;23.60;;;-0.70;99.90;;;;;;5093259;28;20027;-65
2021/01/17 02:38:38;;;;;;;51.47;23.85;;;-0.70;99.90;;;;;;5092085;28;20020;-68
2021/01/17 02:43:53;;;;;;;49.55;23.58;;;-0.70;99.90;;;;;;5091837;27;20751;-68
2021/01/17 02:46:19;;;;;;;54.10;24.90;;;-0.70;99.90;;;;;;5091555;28;20020;-68
2021/01/17 02:48:45;;;;;;;49.67;24.20;;;-0.70;99.90;;;;;;5089672;28;20536;-68
2021/01/17 02:51:10;;;;;;;53.97;24.77;;;-0.70;99.90;;;;;;5091483;28;20051;-67
2021/01/17 02:53:44;;;;;;;52.00;22.75;;;-0.70;99.90;;;;;;5091444;28;20059;-66
2021/01/17 02:56:16;;;;;;;53.55;24.05;;;-0.70;99.90;;;;;;5089589;28;20028;-67
2021/01/17 02:58:44;;;;;;;50.40;23.77;;;-0.70;99.90;;;;;;5072777;28;20078;-68
2021/01/17 03:01:12;;;;;;;52.67;23.92;;;-0.70;99.90;;;;;;5090167;28;20032;-68
2021/01/17 03:03:41;;;;;;;55.85;24.80;;;-0.70;99.90;;;;;;5091156;28;20480;-67
2021/01/17 03:06:08;;;;;;;50.53;24.33;;;-0.70;99.90;;;;;;5073156;28;20029;-68
2021/01/17 03:08:34;;;;;;;51.60;23.95;;;-0.70;99.90;;;;;;5090562;28;20103;-68
2021/01/17 03:11:00;;;;;;;55.85;25.83;;;-0.70;99.90;;;;;;5090802;28;20028;-68
2021/01/17 03:13:26;;;;;;;56.70;25.85;;;-0.70;99.90;;;;;;5090789;28;20032;-68
2021/01/17 03:15:52;;;;;;;52.72;24.80;;;-0.70;99.90;;;;;;5089184;28;20031;-68
2021/01/17 03:18:19;;;;;;;53.67;24.70;;;-0.70;99.90;;;;;;5089653;28;20020;-68
2021/01/17 03:20:44;;;;;;;53.92;25.40;;;-0.60;99.90;;;;;;5090945;28;20373;-68
2021/01/17 03:23:10;;;;;;;51.88;23.30;;;-0.60;99.90;;;;;;5090549;28;20024;-68
2021/01/17 03:25:35;;;;;;;53.65;25.38;;;-0.60;99.90;;;;;;5090560;28;20024;-68
2021/01/17 03:28:01;;;;;;;57.38;25.33;;;-0.70;99.90;;;;;;5090799;28;20023;-68
2021/01/17 03:30:26;;;;;;;53.72;24.42;;;-0.60;99.90;;;;;;5090458;28;20061;-68
2021/01/17 03:32:52;;;;;;;61.78;26.55;;;-0.60;99.90;;;;;;5090712;28;20435;-68
2021/01/17 03:35:17;;;;;;;61.40;26.75;;;-0.60;99.90;;;;;;5090631;28;20469;-68
2021/01/17 03:37:43;;;;;;;63.47;27.20;;;-0.60;99.90;;;;;;5090327;28;20028;-68
2021/01/17 03:40:09;;;;;;;63.55;26.95;;;-0.60;99.90;;;;;;5090535;28;20025;-68
2021/01/17 03:42:34;;;;;;;65.28;27.77;;;-0.60;99.90;;;;;;5089994;28;20048;-68
2021/01/17 03:45:01;;;;;;;65.88;27.20;;;-0.60;99.90;;;;;;5089932;28;20024;-68
2021/01/17 03:47:26;;;;;;;66.00;27.90;;;-0.60;99.90;;;;;;5089216;28;20020;-68
2021/01/17 03:49:52;;;;;;;68.00;29.17;;;-0.60;99.90;;;;;;5090348;28;20123;-68
2021/01/17 03:52:17;;;;;;;63.78;28.27;;;-0.60;99.90;;;;;;5090315;28;20047;-68
2021/01/17 03:54:43;;;;;;;62.90;28.05;;;-0.60;99.90;;;;;;5077937;28;20024;-68
2021/01/17 03:57:08;;;;;;;64.45;29.33;;;-0.60;99.90;;;;;;5076707;28;20020;-68
2021/01/17 03:59:34;;;;;;;70.45;29.92;;;-0.60;99.90;;;;;;5076680;28;20481;-68
2021/01/17 04:01:59;;;;;;;73.47;30.38;;;-0.60;99.90;;;;;;5076554;28;20020;-68
2021/01/17 04:04:25;;;;;;;68.32;28.17;;;-0.60;99.90;;;;;;5076290;28;20492;-68
2021/01/17 04:06:50;;;;;;;66.18;29.42;;;-0.60;99.90;;;;;;5076539;28;20023;-68
2021/01/17 04:09:16;;;;;;;66.57;29.15;;;-0.60;99.90;;;;;;5076475;28;20024;-68
2021/01/17 04:11:42;;;;;;;69.90;28.98;;;-0.60;99.90;;;;;;5076470;28;20048;-68
2021/01/17 04:14:08;;;;;;;66.93;28.85;;;-0.60;99.90;;;;;;5076401;28;20024;-68
2021/01/17 04:16:33;;;;;;;74.38;30.58;;;-0.60;99.90;;;;;;5076117;28;20032;-68
2021/01/17 04:18:59;;;;;;;64.72;29.55;;;-0.60;99.90;;;;;;5075162;28;20027;-68
2021/01/17 04:21:24;;;;;;;76.32;30.77;;;-0.60;99.90;;;;;;5075716;28;20034;-68
2021/01/17 04:23:50;;;;;;;73.82;31.10;;;-0.50;99.90;;;;;;5074492;28;20099;-68
2021/01/17 04:26:18;;;;;;;77.22;32.67;;;-0.50;99.90;;;;;;5075918;28;20458;-68
2021/01/17 04:28:44;;;;;;;73.25;31.25;;;-0.50;99.90;;;;;;5076151;28;20020;-68
2021/01/17 04:31:10;;;;;;;72.32;31.27;;;-0.50;99.90;;;;;;5074971;28;20103;-68
2021/01/17 04:33:35;;;;;;;69.80;30.60;;;-0.50;99.90;;;;;;5076048;28;20032;-68
2021/01/17 04:36:01;;;;;;;72.32;30.58;;;-0.50;99.90;;;;;;5076034;28;20225;-68
2021/01/17 04:38:30;;;;;;;75.60;32.28;;;-0.60;99.90;;;;;;5074147;28;20078;-68
2021/01/17 04:41:01;;;;;;;74.30;32.00;;;-0.60;99.90;;;;;;5075633;28;20457;-68
2021/01/17 04:43:34;;;;;;;74.65;30.75;;;-0.50;99.90;;;;;;5075091;28;20041;-68
2021/01/17 04:46:03;;;;;;;69.63;31.88;;;-0.50;99.90;;;;;;5075612;28;20025;-68
2021/01/17 04:48:30;;;;;;;75.05;32.45;;;-0.50;99.90;;;;;;5075226;28;20017;-68
2021/01/17 04:51:04;;;;;;;72.35;31.58;;;-0.50;99.90;;;;;;5075735;28;20013;-66
2021/01/17 04:53:33;;;;;;;74.60;31.23;;;-0.50;99.90;;;;;;5074264;28;20021;-67
2021/01/17 04:56:23;;;;;;;75.55;32.15;;;-0.50;99.90;;;;;;5074207;28;20024;-67
2021/01/17 04:59:17;;;;;;;70.38;30.35;;;-0.60;99.90;;;;;;5075306;28;20082;-66
2021/01/17 05:01:48;;;;;;;;;;;-0.60;99.90;;;;;;5075252;28;20060;-68
2021/01/17 05:04:33;;;;;;;72.35;30.95;;;-0.60;99.90;;;;;;5075488;28;19905;-68
2021/01/17 05:07:04;;;;;;;70.15;31.42;;;-0.50;99.90;;;;;;5074479;28;20020;-66
2021/01/17 05:09:31;;;;;;;74.22;32.88;;;-0.60;99.90;;;;;;5074809;28;20381;-68
2021/01/17 05:12:12;;;;;;;68.00;30.13;;;-0.50;99.90;;;;;;5075310;28;20047;-68
2021/01/17 05:14:43;;;;;;;72.22;31.73;;;-0.50;99.90;;;;;;5075240;28;20024;-68
2021/01/17 05:17:09;;;;;;;74.00;32.40;;;-0.50;99.90;;;;;;5074642;28;20021;-68
2021/01/17 05:19:37;;;;;;;68.63;30.15;;;-0.40;99.90;;;;;;5074598;28;20044;-68
2021/01/17 05:22:04;;;;;;;73.18;32.97;;;-0.50;99.90;;;;;;5075038;28;20047;-68
2021/01/17 05:24:31;;;;;;;79.30;33.63;;;-0.50;99.90;;;;;;5075019;28;20454;-68
2021/01/17 05:26:59;;;;;;;77.35;33.05;;;-0.50;99.90;;;;;;5074986;28;20035;-68
2021/01/17 05:29:27;;;;;;;72.28;32.08;;;-0.50;99.90;;;;;;5074929;28;20032;-68
2021/01/17 05:31:56;;;;;;;75.30;32.88;;;-0.50;99.90;;;;;;5074902;28;20020;-68
2021/01/17 05:34:22;;;;;;;76.85;33.97;;;-0.40;99.90;;;;;;5074616;28;20108;-68
2021/01/17 05:37:01;;;;;;;79.43;34.72;;;-0.40;99.90;;;;;;5074788;28;20090;-68
2021/01/17 05:39:27;;;;;;;75.40;34.03;;;-0.40;99.90;;;;;;5074730;28;20040;-68
2021/01/17 05:41:52;;;;;;;77.45;33.55;;;-0.40;99.90;;;;;;5073868;28;20045;-68
2021/01/17 05:44:33;;;;;;;79.70;34.75;;;-0.40;99.90;;;;;;5074651;28;20496;-66
2021/01/17 05:47:04;;;;;;;83.32;35.17;;;-0.40;99.90;;;;;;5073470;28;20047;-68
2021/01/17 05:49:30;;;;;;;77.70;33.22;;;-0.40;99.90;;;;;;5074524;28;20073;-68
2021/01/17 05:52:11;;;;;;;74.80;32.28;;;-0.40;99.90;;;;;;5074475;28;20033;-68
2021/01/17 05:54:39;;;;;;;75.15;33.47;;;-0.40;99.90;;;;;;5074443;28;20044;-68
2021/01/17 05:57:13;;;;;;;79.63;33.83;;;-0.40;99.90;;;;;;5074127;28;20539;-68
2021/01/17 05:59:39;;;;;;;76.88;32.83;;;-0.40;99.90;;;;;;5072938;28;20048;-68
2021/01/17 06:02:22;;;;;;;73.70;32.40;;;-0.40;99.90;;;;;;5074264;28;20027;-68
2021/01/17 06:04:53;;;;;;;72.20;32.10;;;-0.40;99.90;;;;;;5074315;28;20451;-67
2021/01/17 06:07:22;;;;;;;70.97;31.88;;;-0.40;99.90;;;;;;5074320;28;20115;-68
2021/01/17 06:09:57;;;;;;;74.75;33.40;;;-0.40;99.90;;;;;;5074250;28;20419;-68
2021/01/17 06:12:32;;;;;;;77.57;33.25;;;-0.40;99.90;;;;;;5074202;28;20048;-68
2021/01/17 06:15:03;;;;;;;76.60;32.13;;;-0.40;99.90;;;;;;5073668;28;20024;-68
2021/01/17 06:17:32;;;;;;;80.90;34.00;;;-0.40;99.90;;;;;;5072431;28;20040;-68
2021/01/17 06:20:01;;;;;;;78.05;30.70;;;-0.40;99.90;;;;;;5074115;28;20024;-68
2021/01/17 06:22:28;;;;;;;79.82;33.25;;;-0.30;99.90;;;;;;5073740;28;20103;-68
2021/01/17 06:24:59;;;;;;;70.00;32.28;;;-0.30;99.90;;;;;;5073523;28;20017;-68
2021/01/17 06:27:26;;;;;;;79.68;34.10;;;-0.30;99.90;;;;;;5072610;28;20092;-68
2021/01/17 06:29:52;;;;;;;70.28;31.85;;;-0.40;99.90;;;;;;5073736;28;20040;-68
2021/01/17 06:32:20;;;;;;;79.38;34.42;;;-0.30;99.90;;;;;;5074001;28;20060;-68
2021/01/17 06:34:51;;;;;;;72.97;32.65;;;-0.30;99.90;;;;;;5073952;28;20024;-68
2021/01/17 06:37:18;;;;;;;76.45;32.58;;;-0.20;99.90;;;;;;5073898;28;20023;-68
2021/01/17 06:39:48;;;;;;;70.05;32.42;;;-0.20;99.90;;;;;;5073941;28;20373;-68
2021/01/17 06:42:14;;;;;;;74.05;32.17;;;-0.30;99.90;;;;;;5073419;28;20425;-68
2021/01/17 06:44:41;;;;;;;74.78;32.92;;;-0.30;99.90;;;;;;5073543;28;20074;-68
2021/01/17 06:47:17;;;;;;;74.28;32.42;;;-0.30;99.90;;;;;;5073810;28;20362;-67
2021/01/17 06:49:43;;;;;;;76.47;32.97;;;-0.30;99.90;;;;;;5073579;28;20109;-68
2021/01/17 06:52:09;;;;;;;72.05;32.65;;;-0.30;99.90;;;;;;5073530;28;20036;-68
2021/01/17 06:54:38;;;;;;;74.70;33.90;;;-0.30;99.90;;;;;;5055294;28;20401;-68
2021/01/17 06:57:05;;;;;;;76.88;34.22;;;-0.30;99.90;;;;;;5073462;28;20031;-68
2021/01/17 06:59:34;;;;;;;78.10;33.28;;;-0.30;99.90;;;;;;5073173;28;20027;-68
2021/01/17 07:05:06;;;;;;;80.32;35.00;;;-0.30;99.90;;;;;;5112148;27;20351;-66
2021/01/17 07:08:02;;;;;;;67.85;31.17;;;-0.30;99.90;;;;;;5111942;28;20060;-67
2021/01/17 07:10:38;;;;;;;77.40;33.67;;;-0.30;99.90;;;;;;5111265;28;20020;-66
2021/01/17 07:13:06;;;;;;;67.05;30.50;;;-0.20;99.90;;;;;;5092998;28;20030;-66
2021/01/17 07:15:35;;;;;;;73.68;32.80;;;-0.20;99.90;;;;;;5111463;28;20148;-67
2021/01/17 07:18:13;;;;;;;74.32;32.03;;;-0.20;99.90;;;;;;5093526;28;20055;-67
2021/01/17 07:20:43;;;;;;;73.32;32.75;;;-0.20;99.90;;;;;;5111604;28;20052;-67
2021/01/17 07:23:12;;;;;;;76.45;33.72;;;-0.20;99.90;;;;;;5111261;28;20444;-66
2021/01/17 07:25:40;;;;;;;76.72;33.03;;;-0.20;99.90;;;;;;5111276;28;20024;-66
2021/01/17 07:28:11;;;;;;;74.47;33.47;;;-0.30;99.90;;;;;;5111249;28;20058;-67
2021/01/17 07:31:02;;;;;;;77.32;34.05;;;-0.30;99.90;;;;;;5111438;28;20453;-68
2021/01/17 07:33:32;;;;;;;80.25;33.63;;;-0.30;99.90;;;;;;5110804;28;20035;-68
2021/01/17 07:36:00;;;;;;;78.35;33.65;;;-0.30;99.90;;;;;;5111340;28;20089;-68
2021/01/17 07:38:30;;;;;;;81.97;35.38;;;-0.30;99.90;;;;;;5110015;28;20016;-68
2021/01/17 07:40:58;;;;;;;83.97;34.92;;;-0.30;99.90;;;;;;5109728;28;20067;-68
2021/01/17 07:46:10;;;;;;;82.57;35.47;;;-0.20;99.90;;;;;;5112197;27;20400;-67
2021/01/17 07:48:37;;;;;;;77.05;34.33;;;-0.20;99.90;;;;;;5093419;28;20020;-66
2021/01/17 07:51:07;;;;;;;79.07;35.70;;;-0.20;99.90;;;;;;5093498;28;20016;-66
2021/01/17 07:53:48;;;;;;;83.90;36.35;;;-0.20;99.90;;;;;;5110304;28;20055;-66
2021/01/17 07:56:33;;;;;;;75.65;35.05;;;-0.10;99.90;;;;;;5111211;28;20031;-68
2021/01/17 07:59:02;;;;;;;78.80;34.28;;;-0.10;99.90;;;;;;5110263;28;20026;-68
2021/01/17 08:06:54;;;;;;;77.40;35.65;;;0.00;99.90;;;;;;5112164;27;20416;-68
2021/01/17 08:09:42;;;;;;;76.95;33.67;;;0.00;99.90;;;;;;5111889;28;20047;-68
2021/01/17 08:12:08;;;;;;;69.93;30.85;;;0.00;99.90;;;;;;5109971;28;20024;-68
2021/01/17 08:14:35;;;;;;;78.55;33.05;;;0.00;99.90;;;;;;5109936;28;20491;-68
2021/01/17 08:17:17;;;;;;;69.00;32.40;;;0.00;99.90;;;;;;5093007;28;20020;-68
2021/01/17 08:19:53;;;;;;;70.77;30.60;;;0.00;99.90;;;;;;5109890;28;20041;-68
2021/01/17 08:24:58;;;;;;;75.90;40.63;;;0.10;99.90;;;;;;5090498;28;20437;-68
2021/01/17 08:27:32;;;;;;;69.45;32.47;;;0.20;99.90;;;;;;5091552;28;20028;-68
2021/01/17 08:32:54;;;;;;;64.60;30.60;;;0.30;99.90;;;;;;5112177;27;20347;-68
2021/01/17 08:38:15;;;;;;;66.90;30.58;;;0.30;99.90;;;;;;5112238;27;20109;-67
2021/01/17 08:40:44;;;;;;;67.85;29.45;;;0.40;99.90;;;;;;5111873;28;20028;-67
2021/01/17 08:43:13;;;;;;;64.75;29.58;;;0.40;99.90;;;;;;5111821;28;20030;-67
2021/01/17 08:45:44;;;;;;;63.28;30.52;;;0.40;99.90;;;;;;5093252;28;20071;-67
2021/01/17 08:48:21;;;;;;;62.70;28.75;;;0.40;99.90;;;;;;5127913;27;20434;-67
2021/01/17 08:50:48;;;;;;;65.38;30.90;;;0.50;99.90;;;;;;5111679;28;20100;-67
2021/01/17 08:53:23;;;;;;;64.40;31.30;;;0.50;99.90;;;;;;5111589;28;20019;-67
2021/01/17 08:55:52;;;;;;;61.00;29.77;;;0.50;99.90;;;;;;5094048;28;20020;-67
2021/01/17 08:58:30;;;;;;;62.65;30.60;;;0.60;99.90;;;;;;5110073;28;20030;-67
2021/01/17 09:03:37;;;;;;;61.55;30.90;;;0.70;99.90;;;;;;5112181;27;20118;-66
2021/01/17 09:06:23;;;;;;;62.47;30.48;;;0.70;99.90;;;;;;5111450;28;20024;-66
2021/01/17 09:14:26;;;;;;;57.17;27.48;;;0.80;99.90;;;;;;5112057;27;20347;-67
2021/01/17 09:19:34;;;;;;;61.45;27.95;;;1.00;99.90;;;;;;5112201;27;20351;-67
2021/01/17 09:22:02;;;;;;;58.67;28.80;;;1.00;99.90;;;;;;5111593;28;20024;-67
2021/01/17 09:24:29;;;;;;;57.78;27.48;;;1.00;99.90;;;;;;5111854;28;20077;-67
2021/01/17 09:26:58;;;;;;;58.40;27.70;;;0.90;99.90;;;;;;5111662;28;20020;-67
2021/01/17 09:29:26;;;;;;;62.38;28.08;;;0.90;99.90;;;;;;5110550;28;20027;-67
2021/01/17 09:31:54;;;;;;;59.63;27.48;;;1.00;99.90;;;;;;5110185;28;20492;-66
2021/01/17 09:34:23;;;;;;;57.70;25.95;;;1.00;99.90;;;;;;5111622;28;20454;-66
2021/01/17 09:36:49;;;;;;;59.00;27.77;;;1.00;99.90;;;;;;5109524;28;20024;-66
2021/01/17 09:39:25;;;;;;;64.35;27.80;;;1.10;99.90;;;;;;5109605;28;20082;-66
2021/01/17 09:41:52;;;;;;;56.45;27.35;;;1.10;99.90;;;;;;5111790;28;20015;-67
2021/01/17 09:44:17;;;;;;;57.63;28.00;;;1.10;99.90;;;;;;5110284;28;20076;-66
2021/01/17 09:46:43;;;;;;;59.13;27.02;;;1.30;99.90;;;;;;5110846;28;20143;-66
2021/01/17 09:49:08;;;;;;;58.38;26.65;;;1.30;99.90;;;;;;5111331;28;20035;-66
2021/01/17 09:51:35;;;;;;;55.03;28.02;;;1.50;99.90;;;;;;5111248;28;20038;-66
2021/01/17 09:54:00;;;;;;;55.17;27.67;;;1.50;99.90;;;;;;5111285;28;20157;-66
2021/01/17 09:56:26;;;;;;;54.10;25.52;;;1.60;99.90;;;;;;5111219;28;20063;-66
2021/01/17 09:58:51;;;;;;;57.10;26.83;;;1.60;99.90;;;;;;5111059;28;20028;-68
2021/01/17 10:01:19;;;;;;;58.08;27.40;;;1.50;99.90;;;;;;5110819;28;20028;-68
2021/01/17 10:03:47;;;;;;;51.17;27.08;;;1.40;99.90;;;;;;5111005;28;20476;-66
2021/01/17 10:06:13;;;;;;;59.30;29.20;;;1.40;99.90;;;;;;5109210;28;20027;-68
2021/01/17 10:08:39;;;;;;;62.80;28.92;;;1.30;99.90;;;;;;5109564;28;20106;-68
2021/01/17 10:11:05;;;;;;;59.30;28.95;;;1.30;99.90;;;;;;5092121;28;20059;-68
2021/01/17 10:13:31;;;;;;;62.35;29.17;;;1.30;99.90;;;;;;5110615;28;20426;-68
2021/01/17 10:15:56;;;;;;;56.60;27.05;;;1.20;99.90;;;;;;5109423;28;20034;-68
2021/01/17 10:18:23;;;;;;;65.00;29.45;;;1.20;99.90;;;;;;5091835;28;20481;-68
2021/01/17 10:20:53;;;;;;;60.08;29.52;;;1.30;99.90;;;;;;5108976;28;20024;-68
2021/01/17 10:23:20;;;;;;;64.25;30.15;;;1.30;99.90;;;;;;5091926;28;20469;-68
2021/01/17 10:25:46;;;;;;;64.80;28.77;;;1.20;99.90;;;;;;5092021;28;20024;-68
2021/01/17 10:28:12;;;;;;;66.68;29.48;;;1.10;99.90;;;;;;5091942;28;20028;-68
2021/01/17 10:30:40;;;;;;;61.78;30.08;;;1.20;99.90;;;;;;5097332;28;20024;-68
2021/01/17 10:33:09;;;;;;;69.72;30.05;;;1.20;99.90;;;;;;5096682;28;20477;-67
2021/01/17 10:35:37;;;;;;;63.40;31.05;;;1.20;99.90;;;;;;5096934;28;20372;-68
2021/01/17 10:38:05;;;;;;;60.08;29.10;;;1.20;99.90;;;;;;5095829;28;20034;-67
2021/01/17 10:40:31;;;;;;;70.32;30.42;;;1.30;99.90;;;;;;5095050;28;20027;-68
2021/01/17 10:43:00;;;;;;;61.28;28.98;;;1.30;99.90;;;;;;5078120;28;20027;-67
2021/01/17 10:45:27;;;;;;;62.17;29.85;;;1.40;99.90;;;;;;5096454;28;20024;-67
2021/01/17 10:48:11;;;;;;;64.75;30.85;;;1.40;99.90;;;;;;5096433;28;20111;-67
2021/01/17 10:50:49;;;;;;;63.92;30.73;;;1.40;99.90;;;;;;5077907;28;20140;-67
2021/01/17 10:53:18;;;;;;;64.68;31.48;;;1.40;99.90;;;;;;5096327;28;20035;-68
2021/01/17 10:55:48;;;;;;;63.33;28.55;;;1.50;99.90;;;;;;5095096;28;20039;-68
2021/01/17 10:58:20;;;;;;;63.45;29.13;;;1.50;99.90;;;;;;5096441;28;20085;-67
2021/01/17 11:01:01;;;;;;;60.65;28.58;;;1.50;99.90;;;;;;5078197;28;20031;-68
2021/01/17 11:03:31;;;;;;;58.42;28.63;;;1.60;99.90;;;;;;5096164;28;20077;-67
2021/01/17 11:06:14;;;;;;;59.08;27.83;;;1.70;99.90;;;;;;5095482;28;20361;-67
2021/01/17 11:08:43;;;;;;;56.47;27.60;;;1.70;99.90;;;;;;5094549;28;20028;-68
2021/01/17 11:11:10;;;;;;;56.42;28.05;;;1.70;99.90;;;;;;5095980;28;20032;-66
2021/01/17 11:13:36;;;;;;;55.47;28.30;;;1.70;99.90;;;;;;5094386;28;20034;-67
2021/01/17 11:16:02;;;;;;;58.00;28.63;;;1.80;99.90;;;;;;5095591;28;20469;-68
2021/01/17 11:18:28;;;;;;;62.78;31.48;;;1.70;99.90;;;;;;5095458;28;20481;-68
2021/01/17 11:20:56;;;;;;;62.58;29.65;;;1.70;99.90;;;;;;5095528;28;20123;-68
2021/01/17 11:23:24;;;;;;;62.17;30.25;;;1.60;99.90;;;;;;5094583;28;20020;-68
2021/01/17 11:26:06;;;;;;;65.45;30.42;;;1.60;99.90;;;;;;5077260;28;20089;-68
2021/01/17 11:28:33;;;;;;;58.15;29.67;;;1.60;99.90;;;;;;5094390;28;20049;-67
2021/01/17 11:31:16;;;;;;;65.63;31.15;;;1.50;99.90;;;;;;5094021;28;20593;-68
2021/01/17 11:33:42;;;;;;;69.00;31.63;;;1.60;99.90;;;;;;5094762;28;20028;-68
2021/01/17 11:36:08;;;;;;;65.82;31.15;;;1.60;99.90;;;;;;5094564;28;20027;-68
2021/01/17 11:38:50;;;;;;;66.40;32.35;;;1.80;99.90;;;;;;5095620;28;20032;-68
2021/01/17 11:41:18;;;;;;;64.28;29.65;;;1.90;99.90;;;;;;5094044;28;20061;-68
2021/01/17 11:43:45;;;;;;;61.85;28.98;;;2.00;99.90;;;;;;5094184;28;20089;-67
2021/01/17 11:46:12;;;;;;;58.90;30.00;;;2.00;99.90;;;;;;5095578;28;20019;-68
2021/01/17 11:48:39;;;;;;;62.90;32.42;;;1.90;99.90;;;;;;5095499;28;20016;-67
2021/01/17 11:51:05;;;;;;;61.63;30.90;;;2.00;99.90;;;;;;5095162;28;20080;-67
2021/01/17 11:53:32;;;;;;;72.00;33.75;;;1.90;99.90;;;;;;5093961;28;20208;-67
2021/01/17 11:55:58;;;;;;;66.60;32.42;;;1.80;99.90;;;;;;5093833;28;20020;-67
2021/01/17 11:58:26;;;;;;;72.53;33.90;;;1.70;99.90;;;;;;5094161;28;20035;-68
2021/01/17 12:00:58;;;;;;;70.70;32.58;;;1.80;99.90;;;;;;5095284;28;20016;-67
2021/01/17 12:06:09;;;;;;;71.72;32.83;;;1.70;99.90;;;;;;5112096;27;20355;-66
2021/01/17 12:08:52;;;;;;;70.68;32.60;;;1.90;99.90;;;;;;5109923;28;20033;-66
2021/01/17 12:11:36;;;;;;;64.60;30.70;;;2.00;99.90;;;;;;5111524;28;20107;-66
2021/01/17 12:14:18;;;;;;;68.03;31.05;;;2.10;99.90;;;;;;5110009;28;20031;-66
2021/01/17 12:16:49;;;;;;;66.05;30.58;;;1.90;99.90;;;;;;5110712;28;20037;-66
2021/01/17 12:19:15;;;;;;;62.05;30.02;;;1.90;99.90;;;;;;5111398;28;20024;-66
2021/01/17 12:21:42;;;;;;;68.95;31.27;;;1.90;99.90;;;;;;5111626;28;20027;-67
2021/01/17 12:24:10;;;;;;;66.35;32.55;;;1.90;99.90;;;;;;5110317;28;20107;-66
2021/01/17 12:26:36;;;;;;;65.90;31.83;;;1.90;99.90;;;;;;5110129;28;20464;-68
2021/01/17 12:29:03;;;;;;;65.53;32.35;;;1.90;99.90;;;;;;5092783;28;20081;-68
2021/01/17 12:31:30;;;;;;;69.07;32.47;;;2.00;99.90;;;;;;5109961;28;20051;-68
2021/01/17 12:33:57;;;;;;;70.35;32.58;;;2.00;99.90;;;;;;5111469;28;20024;-66
2021/01/17 12:36:24;;;;;;;63.83;31.58;;;2.00;99.90;;;;;;5109893;28;20415;-67
2021/01/17 12:38:51;;;;;;;68.97;32.25;;;1.90;99.90;;;;;;5109895;28;20374;-66
2021/01/17 12:41:19;;;;;;;65.85;30.55;;;1.90;99.90;;;;;;5111307;28;20012;-68
2021/01/17 12:43:46;;;;;;;67.65;32.13;;;1.90;99.90;;;;;;5111160;28;20024;-67
2021/01/17 12:46:12;;;;;;;67.72;31.98;;;1.90;99.90;;;;;;5092578;28;20024;-68
2021/01/17 12:48:38;;;;;;;70.25;32.13;;;1.90;99.90;;;;;;5092393;28;20020;-68
2021/01/17 12:51:05;;;;;;;67.60;31.02;;;2.00;99.90;;;;;;5109250;28;20031;-68
2021/01/17 12:53:30;;;;;;;69.28;30.15;;;2.00;99.90;;;;;;5110994;28;20457;-68
2021/01/17 12:55:56;;;;;;;70.93;33.00;;;2.10;99.90;;;;;;5110980;28;20051;-68
2021/01/17 12:58:22;;;;;;;67.15;30.83;;;2.10;99.90;;;;;;5110732;28;20024;-68
2021/01/17 13:00:47;;;;;;;70.25;31.23;;;2.20;99.90;;;;;;5110394;28;20118;-68
2021/01/17 13:03:13;;;;;;;69.80;30.92;;;2.10;99.90;;;;;;5110945;28;20039;-68
2021/01/17 13:05:38;;;;;;;68.03;30.38;;;2.20;99.90;;;;;;5110084;28;20036;-68
2021/01/17 13:08:04;;;;;;;62.83;29.85;;;2.20;99.90;;;;;;5109319;28;20019;-68
2021/01/17 13:10:30;;;;;;;64.03;30.45;;;2.20;99.90;;;;;;5110754;28;20369;-67
2021/01/17 13:12:57;;;;;;;64.55;30.23;;;2.10;99.90;;;;;;5110388;28;20421;-68
2021/01/17 13:15:28;;;;;;;71.55;31.35;;;2.10;99.90;;;;;;5109038;28;20027;-67